sensor_id;sensor_type;location;lat;lon;timestamp;pressure;altitude;pressure_sealevel;temperature;humidity
78206;BME280;67480;48.920;12.880;2023-07-31T00:02:07;97137.22;;;22.31;nan
78206;BME280;67480;48.920;12.880;2023-07-31T00:04:32;97146.31;;;22.53;nan
78206;BME280;67480;48.920;12.880;2023-07-31T00:06:58;97139.97;;;22.28;nan
78206;BME280;67480;48.920;12.880;2023-07-31T00:09:23;97134.88;;;22.30;nan
78206;BME280;67480;48.920;12.880;2023-07-31T00:11:48;97138.28;;;22.01;nan
78206;BME280;67480;48.920;12.880;2023-07-31T00:14:14;97142.31;;;22.26;nan
78206;BME280;67480;48.920;12.880;2023-07-31T00:16:39;97142.31;;;22.33;nan
78206;BME280;67480;48.920;12.880;2023-07-31T00:19:05;97141.13;;;22.16;nan
78206;BME280;67480;48.920;12.880;2023-07-31T00:21:30;97141.13;;;22.23;nan
78206;BME280;67480;48.920;12.880;2023-07-31T00:23:56;97141.56;;;22.29;nan
78206;BME280;67480;48.920;12.880;2023-07-31T00:26:21;97135.25;;;22.21;nan
78206;BME280;67480;48.920;12.880;2023-07-31T00:28:46;97134.44;;;22.10;nan
78206;BME280;67480;48.920;12.880;2023-07-31T00:31:12;97140.56;;;21.92;nan
78206;BME280;67480;48.920;12.880;2023-07-31T00:33:37;97130.50;;;22.07;nan
78206;BME280;67480;48.920;12.880;2023-07-31T00:36:03;97132.06;;;22.08;nan
78206;BME280;67480;48.920;12.880;2023-07-31T00:38:28;97138.66;;;21.96;nan
78206;BME280;67480;48.920;12.880;2023-07-31T00:40:54;97130.44;;;22.00;nan
78206;BME280;67480;48.920;12.880;2023-07-31T00:43:19;97139.91;;;22.10;nan
78206;BME280;67480;48.920;12.880;2023-07-31T00:45:44;97137.06;;;21.92;nan
78206;BME280;67480;48.920;12.880;2023-07-31T00:48:10;97141.72;;;21.84;nan
78206;BME280;67480;48.920;12.880;2023-07-31T00:50:36;97133.88;;;21.79;nan
78206;BME280;67480;48.920;12.880;2023-07-31T00:53:03;97127.94;;;21.73;nan
78206;BME280;67480;48.920;12.880;2023-07-31T00:55:29;97127.22;;;21.80;nan
78206;BME280;67480;48.920;12.880;2023-07-31T00:57:55;97129.13;;;21.72;nan
78206;BME280;67480;48.920;12.880;2023-07-31T01:00:21;97124.03;;;21.67;nan
78206;BME280;67480;48.920;12.880;2023-07-31T01:02:49;97131.81;;;21.65;nan
78206;BME280;67480;48.920;12.880;2023-07-31T01:05:15;97137.56;;;21.45;nan
78206;BME280;67480;48.920;12.880;2023-07-31T01:07:47;97139.19;;;21.50;nan
78206;BME280;67480;48.920;12.880;2023-07-31T01:10:21;97126.59;;;21.38;nan
78206;BME280;67480;48.920;12.880;2023-07-31T01:12:50;97134.78;;;21.35;nan
78206;BME280;67480;48.920;12.880;2023-07-31T01:15:16;97141.56;;;21.03;nan
78206;BME280;67480;48.920;12.880;2023-07-31T01:17:43;97141.34;;;21.26;nan
78206;BME280;67480;48.920;12.880;2023-07-31T01:20:23;97131.56;;;21.25;nan
78206;BME280;67480;48.920;12.880;2023-07-31T01:31:02;97106.06;;;21.14;nan
78206;BME280;67480;48.920;12.880;2023-07-31T01:33:29;97111.56;;;21.18;nan
78206;BME280;67480;48.920;12.880;2023-07-31T01:35:55;97111.59;;;21.21;nan
78206;BME280;67480;48.920;12.880;2023-07-31T01:38:21;97108.81;;;21.18;nan
78206;BME280;67480;48.920;12.880;2023-07-31T01:40:51;97108.03;;;21.17;nan
78206;BME280;67480;48.920;12.880;2023-07-31T01:43:17;97096.31;;;21.13;nan
78206;BME280;67480;48.920;12.880;2023-07-31T01:45:44;97093.97;;;21.15;nan
78206;BME280;67480;48.920;12.880;2023-07-31T01:48:09;97104.94;;;21.22;nan
78206;BME280;67480;48.920;12.880;2023-07-31T01:50:35;97100.66;;;21.21;nan
78206;BME280;67480;48.920;12.880;2023-07-31T01:53:00;97098.47;;;21.41;nan
78206;BME280;67480;48.920;12.880;2023-07-31T01:55:26;97090.91;;;21.27;nan
78206;BME280;67480;48.920;12.880;2023-07-31T01:57:51;97095.59;;;21.30;nan
78206;BME280;67480;48.920;12.880;2023-07-31T02:00:17;97099.22;;;21.38;nan
78206;BME280;67480;48.920;12.880;2023-07-31T02:02:43;97094.47;;;21.32;nan
78206;BME280;67480;48.920;12.880;2023-07-31T02:05:08;97102.31;;;21.33;nan
78206;BME280;67480;48.920;12.880;2023-07-31T02:07:39;97090.34;;;21.04;nan
78206;BME280;67480;48.920;12.880;2023-07-31T02:10:05;97081.78;;;21.05;nan
78206;BME280;67480;48.920;12.880;2023-07-31T02:12:30;97094.34;;;21.17;nan
78206;BME280;67480;48.920;12.880;2023-07-31T02:14:57;97082.91;;;21.01;nan
78206;BME280;67480;48.920;12.880;2023-07-31T02:17:22;97080.94;;;20.98;nan
78206;BME280;67480;48.920;12.880;2023-07-31T02:19:48;97091.09;;;20.97;nan
78206;BME280;67480;48.920;12.880;2023-07-31T02:22:13;97082.28;;;21.22;nan
78206;BME280;67480;48.920;12.880;2023-07-31T02:24:39;97085.25;;;21.02;nan
78206;BME280;67480;48.920;12.880;2023-07-31T02:27:05;97076.44;;;21.27;nan
78206;BME280;67480;48.920;12.880;2023-07-31T02:29:30;97079.06;;;21.09;nan
78206;BME280;67480;48.920;12.880;2023-07-31T02:31:56;97079.88;;;21.13;nan
78206;BME280;67480;48.920;12.880;2023-07-31T02:34:21;97083.00;;;21.11;nan
78206;BME280;67480;48.920;12.880;2023-07-31T02:36:46;97075.56;;;21.12;nan
78206;BME280;67480;48.920;12.880;2023-07-31T02:39:12;97088.50;;;21.19;nan
78206;BME280;67480;48.920;12.880;2023-07-31T02:41:37;97088.13;;;21.20;nan
78206;BME280;67480;48.920;12.880;2023-07-31T02:44:04;97081.06;;;21.16;nan
78206;BME280;67480;48.920;12.880;2023-07-31T02:46:29;97084.94;;;21.11;nan
78206;BME280;67480;48.920;12.880;2023-07-31T02:48:55;97091.63;;;21.21;nan
78206;BME280;67480;48.920;12.880;2023-07-31T02:51:20;97091.53;;;21.06;nan
78206;BME280;67480;48.920;12.880;2023-07-31T02:53:47;97079.00;;;21.02;nan
78206;BME280;67480;48.920;12.880;2023-07-31T02:56:13;97085.59;;;20.93;nan
78206;BME280;67480;48.920;12.880;2023-07-31T02:58:38;97084.72;;;20.82;nan
78206;BME280;67480;48.920;12.880;2023-07-31T03:01:04;97080.78;;;20.80;nan
78206;BME280;67480;48.920;12.880;2023-07-31T03:03:29;97084.66;;;20.75;nan
78206;BME280;67480;48.920;12.880;2023-07-31T03:05:55;97082.72;;;20.76;nan
78206;BME280;67480;48.920;12.880;2023-07-31T03:08:20;97073.66;;;20.64;nan
78206;BME280;67480;48.920;12.880;2023-07-31T03:10:46;97066.59;;;20.63;nan
78206;BME280;67480;48.920;12.880;2023-07-31T03:13:11;97075.75;;;20.85;nan
78206;BME280;67480;48.920;12.880;2023-07-31T03:15:37;97075.19;;;20.65;nan
78206;BME280;67480;48.920;12.880;2023-07-31T03:18:02;97078.78;;;20.73;nan
78206;BME280;67480;48.920;12.880;2023-07-31T03:20:31;97079.94;;;20.72;nan
78206;BME280;67480;48.920;12.880;2023-07-31T03:22:56;97080.19;;;20.56;nan
78206;BME280;67480;48.920;12.880;2023-07-31T03:25:21;97079.13;;;20.64;nan
78206;BME280;67480;48.920;12.880;2023-07-31T03:27:47;97077.75;;;20.51;nan
78206;BME280;67480;48.920;12.880;2023-07-31T03:30:14;97066.88;;;20.54;nan
78206;BME280;67480;48.920;12.880;2023-07-31T03:32:40;97071.91;;;20.49;nan
78206;BME280;67480;48.920;12.880;2023-07-31T03:35:06;97068.44;;;20.55;nan
78206;BME280;67480;48.920;12.880;2023-07-31T03:37:31;97070.41;;;20.55;nan
78206;BME280;67480;48.920;12.880;2023-07-31T03:39:56;97079.88;;;20.61;nan
78206;BME280;67480;48.920;12.880;2023-07-31T03:42:22;97079.31;;;20.48;nan
78206;BME280;67480;48.920;12.880;2023-07-31T03:44:48;97078.66;;;20.21;nan
78206;BME280;67480;48.920;12.880;2023-07-31T03:47:13;97079.97;;;20.38;nan
78206;BME280;67480;48.920;12.880;2023-07-31T03:49:38;97077.22;;;20.34;nan
78206;BME280;67480;48.920;12.880;2023-07-31T03:52:04;97074.97;;;20.44;nan
78206;BME280;67480;48.920;12.880;2023-07-31T03:54:29;97077.31;;;20.42;nan
78206;BME280;67480;48.920;12.880;2023-07-31T03:56:59;97086.31;;;20.46;nan
78206;BME280;67480;48.920;12.880;2023-07-31T03:59:25;97082.72;;;20.38;nan
78206;BME280;67480;48.920;12.880;2023-07-31T04:01:50;97086.59;;;20.33;nan
78206;BME280;67480;48.920;12.880;2023-07-31T04:04:16;97091.72;;;20.38;nan
78206;BME280;67480;48.920;12.880;2023-07-31T04:06:41;97091.72;;;20.38;nan
78206;BME280;67480;48.920;12.880;2023-07-31T04:09:07;97090.16;;;20.41;nan
78206;BME280;67480;48.920;12.880;2023-07-31T04:11:32;97085.97;;;20.51;nan
78206;BME280;67480;48.920;12.880;2023-07-31T04:13:57;97079.75;;;20.54;nan
78206;BME280;67480;48.920;12.880;2023-07-31T04:16:23;97080.47;;;20.47;nan
78206;BME280;67480;48.920;12.880;2023-07-31T04:18:48;97077.38;;;20.49;nan
78206;BME280;67480;48.920;12.880;2023-07-31T04:21:15;97070.81;;;20.57;nan
78206;BME280;67480;48.920;12.880;2023-07-31T04:23:40;97077.06;;;20.58;nan
78206;BME280;67480;48.920;12.880;2023-07-31T04:26:05;97070.28;;;20.44;nan
78206;BME280;67480;48.920;12.880;2023-07-31T04:28:31;97070.41;;;20.55;nan
78206;BME280;67480;48.920;12.880;2023-07-31T04:30:57;97075.22;;;20.69;nan
78206;BME280;67480;48.920;12.880;2023-07-31T04:33:22;97076.91;;;20.81;nan
78206;BME280;67480;48.920;12.880;2023-07-31T04:35:52;97078.06;;;20.80;nan
78206;BME280;67480;48.920;12.880;2023-07-31T04:38:19;97077.63;;;20.74;nan
78206;BME280;67480;48.920;12.880;2023-07-31T04:40:44;97073.34;;;20.77;nan
78206;BME280;67480;48.920;12.880;2023-07-31T04:43:10;97072.91;;;20.71;nan
78206;BME280;67480;48.920;12.880;2023-07-31T04:45:35;97073.28;;;20.66;nan
78206;BME280;67480;48.920;12.880;2023-07-31T04:48:00;97068.59;;;20.70;nan
78206;BME280;67480;48.920;12.880;2023-07-31T04:50:26;97067.84;;;20.73;nan
78206;BME280;67480;48.920;12.880;2023-07-31T04:52:51;97071.81;;;20.79;nan
78206;BME280;67480;48.920;12.880;2023-07-31T04:55:17;97073.34;;;20.80;nan
78206;BME280;67480;48.920;12.880;2023-07-31T04:57:42;97066.72;;;20.78;nan
78206;BME280;67480;48.920;12.880;2023-07-31T05:00:08;97068.63;;;20.73;nan
78206;BME280;67480;48.920;12.880;2023-07-31T05:02:33;97061.66;;;20.83;nan
78206;BME280;67480;48.920;12.880;2023-07-31T05:04:59;97066.00;;;20.88;nan
78206;BME280;67480;48.920;12.880;2023-07-31T05:07:24;97074.00;;;21.15;nan
78206;BME280;67480;48.920;12.880;2023-07-31T05:09:49;97075.13;;;21.06;nan
78206;BME280;67480;48.920;12.880;2023-07-31T05:12:15;97073.66;;;21.20;nan
78206;BME280;67480;48.920;12.880;2023-07-31T05:14:40;97066.66;;;21.26;nan
78206;BME280;67480;48.920;12.880;2023-07-31T05:17:05;97067.81;;;21.25;nan
78206;BME280;67480;48.920;12.880;2023-07-31T05:19:31;97069.03;;;21.31;nan
78206;BME280;67480;48.920;12.880;2023-07-31T05:21:56;97064.03;;;21.40;nan
78206;BME280;67480;48.920;12.880;2023-07-31T05:24:21;97066.78;;;21.44;nan
78206;BME280;67480;48.920;12.880;2023-07-31T05:26:47;97066.81;;;21.51;nan
78206;BME280;67480;48.920;12.880;2023-07-31T05:29:12;97062.97;;;21.66;nan
78206;BME280;67480;48.920;12.880;2023-07-31T05:31:38;97071.66;;;21.83;nan
78206;BME280;67480;48.920;12.880;2023-07-31T05:34:04;97063.09;;;21.92;nan
78206;BME280;67480;48.920;12.880;2023-07-31T05:36:29;97059.19;;;21.96;nan
78206;BME280;67480;48.920;12.880;2023-07-31T05:38:55;97051.06;;;22.14;nan
78206;BME280;67480;48.920;12.880;2023-07-31T05:41:20;97053.03;;;22.28;nan
78206;BME280;67480;48.920;12.880;2023-07-31T05:43:45;97047.94;;;22.30;nan
78206;BME280;67480;48.920;12.880;2023-07-31T05:46:11;97051.09;;;22.54;nan
78206;BME280;67480;48.920;12.880;2023-07-31T05:48:37;97048.75;;;22.49;nan
78206;BME280;67480;48.920;12.880;2023-07-31T05:51:03;97053.47;;;22.66;nan
78206;BME280;67480;48.920;12.880;2023-07-31T05:53:28;97055.44;;;22.80;nan
78206;BME280;67480;48.920;12.880;2023-07-31T05:55:53;97053.84;;;23.08;nan
78206;BME280;67480;48.920;12.880;2023-07-31T05:58:19;97054.25;;;23.14;nan
78206;BME280;67480;48.920;12.880;2023-07-31T06:00:44;97051.81;;;23.41;nan
78206;BME280;67480;48.920;12.880;2023-07-31T06:03:10;97053.41;;;23.53;nan
78206;BME280;67480;48.920;12.880;2023-07-31T06:05:35;97048.56;;;23.82;nan
78206;BME280;67480;48.920;12.880;2023-07-31T06:08:00;97050.34;;;24.25;nan
78206;BME280;67480;48.920;12.880;2023-07-31T06:10:26;97056.91;;;24.38;nan
78206;BME280;67480;48.920;12.880;2023-07-31T06:12:52;97051.00;;;24.43;nan
78206;BME280;67480;48.920;12.880;2023-07-31T06:15:17;97060.06;;;24.36;nan
78206;BME280;67480;48.920;12.880;2023-07-31T06:17:46;97054.59;;;24.33;nan
78206;BME280;67480;48.920;12.880;2023-07-31T06:20:11;97060.41;;;24.46;nan
78206;BME280;67480;48.920;12.880;2023-07-31T06:22:36;97062.94;;;24.11;nan
78206;BME280;67480;48.920;12.880;2023-07-31T06:25:02;97059.00;;;24.12;nan
78206;BME280;67480;48.920;12.880;2023-07-31T06:27:28;97064.25;;;23.85;nan
78206;BME280;67480;48.920;12.880;2023-07-31T06:29:53;97059.94;;;23.84;nan
78206;BME280;67480;48.920;12.880;2023-07-31T06:32:19;97055.09;;;24.10;nan
78206;BME280;67480;48.920;12.880;2023-07-31T06:34:44;97056.25;;;24.16;nan
78206;BME280;67480;48.920;12.880;2023-07-31T06:37:09;97064.47;;;24.27;nan
78206;BME280;67480;48.920;12.880;2023-07-31T06:39:35;97063.41;;;23.99;nan
78206;BME280;67480;48.920;12.880;2023-07-31T06:42:00;97061.81;;;23.98;nan
78206;BME280;67480;48.920;12.880;2023-07-31T06:44:25;97063.69;;;24.23;nan
78206;BME280;67480;48.920;12.880;2023-07-31T06:46:51;97065.81;;;24.56;nan
78206;BME280;67480;48.920;12.880;2023-07-31T06:49:16;97055.16;;;24.66;nan
78206;BME280;67480;48.920;12.880;2023-07-31T06:51:42;97060.09;;;24.89;nan
78206;BME280;67480;48.920;12.880;2023-07-31T06:54:08;97060.09;;;25.30;nan
78206;BME280;67480;48.920;12.880;2023-07-31T06:56:33;97065.56;;;25.34;nan
78206;BME280;67480;48.920;12.880;2023-07-31T06:58:59;97069.59;;;25.26;nan
78206;BME280;67480;48.920;12.880;2023-07-31T07:01:24;97061.13;;;25.47;nan
78206;BME280;67480;48.920;12.880;2023-07-31T07:03:50;97069.75;;;25.53;nan
78206;BME280;67480;48.920;12.880;2023-07-31T07:06:18;97072.72;;;25.97;nan
78206;BME280;67480;48.920;12.880;2023-07-31T07:08:43;97068.56;;;25.85;nan
78206;BME280;67480;48.920;12.880;2023-07-31T07:11:09;97067.03;;;25.80;nan
78206;BME280;67480;48.920;12.880;2023-07-31T07:13:34;97062.84;;;25.69;nan
78206;BME280;67480;48.920;12.880;2023-07-31T07:16:00;97067.28;;;25.93;nan
78206;BME280;67480;48.920;12.880;2023-07-31T07:18:25;97055.13;;;25.56;nan
78206;BME280;67480;48.920;12.880;2023-07-31T07:20:52;97059.13;;;26.17;nan
78206;BME280;67480;48.920;12.880;2023-07-31T07:23:18;97055.25;;;26.65;nan
78206;BME280;67480;48.920;12.880;2023-07-31T07:25:45;97064.34;;;26.62;nan
78206;BME280;67480;48.920;12.880;2023-07-31T07:28:10;97055.16;;;26.45;nan
78206;BME280;67480;48.920;12.880;2023-07-31T07:30:36;97052.16;;;26.09;nan
78206;BME280;67480;48.920;12.880;2023-07-31T07:33:01;97048.13;;;26.91;nan
78206;BME280;67480;48.920;12.880;2023-07-31T07:35:27;97051.34;;;26.63;nan
78206;BME280;67480;48.920;12.880;2023-07-31T07:37:52;97043.09;;;26.86;nan
78206;BME280;67480;48.920;12.880;2023-07-31T07:40:18;97043.56;;;26.81;nan
78206;BME280;67480;48.920;12.880;2023-07-31T07:42:44;97039.19;;;27.51;nan
78206;BME280;67480;48.920;12.880;2023-07-31T07:45:09;97030.31;;;28.00;nan
78206;BME280;67480;48.920;12.880;2023-07-31T07:47:35;97043.28;;;27.83;nan
78206;BME280;67480;48.920;12.880;2023-07-31T07:50:00;97046.50;;;28.18;nan
78206;BME280;67480;48.920;12.880;2023-07-31T07:52:26;97035.97;;;28.13;nan
78206;BME280;67480;48.920;12.880;2023-07-31T07:54:51;97044.06;;;28.40;nan
78206;BME280;67480;48.920;12.880;2023-07-31T07:57:17;97030.84;;;28.48;nan
78206;BME280;67480;48.920;12.880;2023-07-31T07:59:42;97042.81;;;28.25;nan
78206;BME280;67480;48.920;12.880;2023-07-31T08:02:08;97036.59;;;28.20;nan
78206;BME280;67480;48.920;12.880;2023-07-31T08:04:33;97022.91;;;28.50;nan
78206;BME280;67480;48.920;12.880;2023-07-31T08:06:58;97030.56;;;28.42;nan
78206;BME280;67480;48.920;12.880;2023-07-31T08:09:24;97034.91;;;28.60;nan
78206;BME280;67480;48.920;12.880;2023-07-31T08:11:49;97030.66;;;28.02;nan
78206;BME280;67480;48.920;12.880;2023-07-31T08:14:15;97024.47;;;28.14;nan
78206;BME280;67480;48.920;12.880;2023-07-31T08:16:40;97024.97;;;28.09;nan
78206;BME280;67480;48.920;12.880;2023-07-31T08:19:05;97028.78;;;27.59;nan
78206;BME280;67480;48.920;12.880;2023-07-31T08:21:31;97027.06;;;27.65;nan
78206;BME280;67480;48.920;12.880;2023-07-31T08:23:57;97030.25;;;27.43;nan
78206;BME280;67480;48.920;12.880;2023-07-31T08:26:23;97026.94;;;27.08;nan
78206;BME280;67480;48.920;12.880;2023-07-31T08:28:48;97023.81;;;27.70;nan
78206;BME280;67480;48.920;12.880;2023-07-31T08:31:13;97032.47;;;28.09;nan
78206;BME280;67480;48.920;12.880;2023-07-31T08:33:39;97034.63;;;27.81;nan
78206;BME280;67480;48.920;12.880;2023-07-31T08:36:05;97027.81;;;27.85;nan
78206;BME280;67480;48.920;12.880;2023-07-31T08:38:31;97024.53;;;28.47;nan
78206;BME280;67480;48.920;12.880;2023-07-31T08:40:57;97026.75;;;27.79;nan
78206;BME280;67480;48.920;12.880;2023-07-31T08:43:25;97031.47;;;28.02;nan
78206;BME280;67480;48.920;12.880;2023-07-31T08:45:51;97033.34;;;28.06;nan
78206;BME280;67480;48.920;12.880;2023-07-31T08:48:17;97029.88;;;28.54;nan
78206;BME280;67480;48.920;12.880;2023-07-31T08:50:43;97034.44;;;28.45;nan
78206;BME280;67480;48.920;12.880;2023-07-31T08:53:08;97037.16;;;28.81;nan
78206;BME280;67480;48.920;12.880;2023-07-31T08:55:35;97026.41;;;28.34;nan
78206;BME280;67480;48.920;12.880;2023-07-31T08:58:02;97024.28;;;27.85;nan
78206;BME280;67480;48.920;12.880;2023-07-31T09:00:29;97027.78;;;28.26;nan
78206;BME280;67480;48.920;12.880;2023-07-31T09:03:00;97027.81;;;27.85;nan
78206;BME280;67480;48.920;12.880;2023-07-31T09:05:29;97022.44;;;27.78;nan
78206;BME280;67480;48.920;12.880;2023-07-31T09:07:56;97030.97;;;27.67;nan
78206;BME280;67480;48.920;12.880;2023-07-31T09:10:22;97023.38;;;27.72;nan
78206;BME280;67480;48.920;12.880;2023-07-31T09:12:50;97019.63;;;27.62;nan
78206;BME280;67480;48.920;12.880;2023-07-31T09:15:16;97024.66;;;27.03;nan
78206;BME280;67480;48.920;12.880;2023-07-31T09:17:41;97021.81;;;26.60;nan
78206;BME280;67480;48.920;12.880;2023-07-31T09:20:19;97022.38;;;26.98;nan
78206;BME280;67480;48.920;12.880;2023-07-31T09:22:45;97019.50;;;26.82;nan
78206;BME280;67480;48.920;12.880;2023-07-31T09:25:21;97016.56;;;26.92;nan
78206;BME280;67480;48.920;12.880;2023-07-31T09:30:17;97016.22;;;26.90;nan
78206;BME280;67480;48.920;12.880;2023-07-31T09:32:44;97016.22;;;27.34;nan
78206;BME280;67480;48.920;12.880;2023-07-31T09:35:20;97012.81;;;27.46;nan
78206;BME280;67480;48.920;12.880;2023-07-31T09:37:55;97005.41;;;28.53;nan
78206;BME280;67480;48.920;12.880;2023-07-31T09:40:32;97018.34;;;30.19;nan
78206;BME280;67480;48.920;12.880;2023-07-31T09:43:00;97008.94;;;31.69;nan
78206;BME280;67480;48.920;12.880;2023-07-31T09:45:26;97006.19;;;33.65;nan
78206;BME280;67480;48.920;12.880;2023-07-31T09:47:53;97011.47;;;34.82;nan
78206;BME280;67480;48.920;12.880;2023-07-31T09:50:21;97000.19;;;36.14;nan
78206;BME280;67480;48.920;12.880;2023-07-31T09:52:46;97007.38;;;36.71;nan
78206;BME280;67480;48.920;12.880;2023-07-31T09:55:12;96998.50;;;38.67;nan
78206;BME280;67480;48.920;12.880;2023-07-31T09:57:42;97003.47;;;35.82;nan
78206;BME280;67480;48.920;12.880;2023-07-31T10:00:11;96986.38;;;33.44;nan
78206;BME280;67480;48.920;12.880;2023-07-31T10:02:38;96974.13;;;32.96;nan
78206;BME280;67480;48.920;12.880;2023-07-31T10:05:05;96970.41;;;34.40;nan
78206;BME280;67480;48.920;12.880;2023-07-31T10:07:31;96964.25;;;33.93;nan
78206;BME280;67480;48.920;12.880;2023-07-31T10:10:00;96952.66;;;31.34;nan
78206;BME280;67480;48.920;12.880;2023-07-31T10:12:26;96953.88;;;32.95;nan
78206;BME280;67480;48.920;12.880;2023-07-31T10:14:55;96956.75;;;34.08;nan
78206;BME280;67480;48.920;12.880;2023-07-31T10:17:24;96955.63;;;33.81;nan
78206;BME280;67480;48.920;12.880;2023-07-31T10:19:50;96971.72;;;33.87;nan
78206;BME280;67480;48.920;12.880;2023-07-31T10:22:16;96950.56;;;34.04;nan
78206;BME280;67480;48.920;12.880;2023-07-31T10:24:44;96942.81;;;32.54;nan
78206;BME280;67480;48.920;12.880;2023-07-31T10:27:10;96942.38;;;35.36;nan
78206;BME280;67480;48.920;12.880;2023-07-31T10:29:37;96952.53;;;35.09;nan
78206;BME280;67480;48.920;12.880;2023-07-31T10:32:04;96933.06;;;37.02;nan
78206;BME280;67480;48.920;12.880;2023-07-31T10:34:35;96946.56;;;38.14;nan
78206;BME280;67480;48.920;12.880;2023-07-31T10:40:26;96928.09;;;33.98;nan
78206;BME280;67480;48.920;12.880;2023-07-31T10:42:53;96931.03;;;33.52;nan
78206;BME280;67480;48.920;12.880;2023-07-31T10:45:39;96929.84;;;33.25;nan
78206;BME280;67480;48.920;12.880;2023-07-31T10:48:12;96932.81;;;34.16;nan
78206;BME280;67480;48.920;12.880;2023-07-31T10:50:46;96923.53;;;33.68;nan
78206;BME280;67480;48.920;12.880;2023-07-31T10:53:22;96917.25;;;33.49;nan
78206;BME280;67480;48.920;12.880;2023-07-31T10:55:48;96911.56;;;33.06;nan
78206;BME280;67480;48.920;12.880;2023-07-31T10:58:18;96921.97;;;32.78;nan
78206;BME280;67480;48.920;12.880;2023-07-31T11:00:44;96911.63;;;31.47;nan
78206;BME280;67480;48.920;12.880;2023-07-31T11:03:15;96910.66;;;34.85;nan
78206;BME280;67480;48.920;12.880;2023-07-31T11:10:40;96915.81;;;38.42;nan
78206;BME280;67480;48.920;12.880;2023-07-31T11:13:06;96903.06;;;37.66;nan
78206;BME280;67480;48.920;12.880;2023-07-31T11:15:31;96892.44;;;36.50;nan
78206;BME280;67480;48.920;12.880;2023-07-31T11:17:56;96898.97;;;38.42;nan
78206;BME280;67480;48.920;12.880;2023-07-31T11:20:25;96888.13;;;36.14;nan
78206;BME280;67480;48.920;12.880;2023-07-31T11:22:50;96874.16;;;35.34;nan
78206;BME280;67480;48.920;12.880;2023-07-31T11:25:16;96883.25;;;34.74;nan
78206;BME280;67480;48.920;12.880;2023-07-31T11:27:43;96876.25;;;35.54;nan
78206;BME280;67480;48.920;12.880;2023-07-31T11:30:09;96871.53;;;35.60;nan
78206;BME280;67480;48.920;12.880;2023-07-31T11:32:38;96874.47;;;35.86;nan
78206;BME280;67480;48.920;12.880;2023-07-31T11:35:04;96869.38;;;35.85;nan
78206;BME280;67480;48.920;12.880;2023-07-31T11:37:44;96867.34;;;34.17;nan
78206;BME280;67480;48.920;12.880;2023-07-31T11:40:10;96868.50;;;33.07;nan
78206;BME280;67480;48.920;12.880;2023-07-31T11:42:36;96851.94;;;33.03;nan
78206;BME280;67480;48.920;12.880;2023-07-31T11:45:08;96846.97;;;33.17;nan
78206;BME280;67480;48.920;12.880;2023-07-31T11:47:36;96847.09;;;33.74;nan
78206;BME280;67480;48.920;12.880;2023-07-31T11:50:03;96850.59;;;34.81;nan
78206;BME280;67480;48.920;12.880;2023-07-31T11:52:33;96836.38;;;34.06;nan
78206;BME280;67480;48.920;12.880;2023-07-31T11:54:59;96830.41;;;33.89;nan
78206;BME280;67480;48.920;12.880;2023-07-31T11:57:25;96831.38;;;34.10;nan
78206;BME280;67480;48.920;12.880;2023-07-31T11:59:51;96833.41;;;33.86;nan
78206;BME280;67480;48.920;12.880;2023-07-31T12:02:18;96832.38;;;35.95;nan
78206;BME280;67480;48.920;12.880;2023-07-31T12:04:43;96831.59;;;37.67;nan
78206;BME280;67480;48.920;12.880;2023-07-31T12:07:10;96836.81;;;39.45;nan
78206;BME280;67480;48.920;12.880;2023-07-31T12:09:37;96833.97;;;40.55;nan
78206;BME280;67480;48.920;12.880;2023-07-31T12:12:08;96828.59;;;39.48;nan
78206;BME280;67480;48.920;12.880;2023-07-31T12:14:34;96820.16;;;37.76;nan
78206;BME280;67480;48.920;12.880;2023-07-31T12:17:04;96826.31;;;38.29;nan
78206;BME280;67480;48.920;12.880;2023-07-31T12:19:30;96811.19;;;37.03;nan
78206;BME280;67480;48.920;12.880;2023-07-31T12:21:56;96794.59;;;35.35;nan
78206;BME280;67480;48.920;12.880;2023-07-31T12:24:23;96801.53;;;35.39;nan
78206;BME280;67480;48.920;12.880;2023-07-31T12:26:48;96787.63;;;36.01;nan
78206;BME280;67480;48.920;12.880;2023-07-31T12:29:14;96784.63;;;35.34;nan
78206;BME280;67480;48.920;12.880;2023-07-31T12:31:46;96776.63;;;36.59;nan
78206;BME280;67480;48.920;12.880;2023-07-31T12:34:19;96763.88;;;35.40;nan
78206;BME280;67480;48.920;12.880;2023-07-31T12:36:48;96780.22;;;37.18;nan
78206;BME280;67480;48.920;12.880;2023-07-31T12:39:24;96779.28;;;33.59;nan
78206;BME280;67480;48.920;12.880;2023-07-31T12:41:55;96777.41;;;32.33;nan
78206;BME280;67480;48.920;12.880;2023-07-31T12:44:27;96756.34;;;32.14;nan
78206;BME280;67480;48.920;12.880;2023-07-31T12:46:55;96778.78;;;33.60;nan
78206;BME280;67480;48.920;12.880;2023-07-31T12:49:20;96765.75;;;33.33;nan
78206;BME280;67480;48.920;12.880;2023-07-31T12:51:46;96763.00;;;32.35;nan
78206;BME280;67480;48.920;12.880;2023-07-31T12:54:12;96763.03;;;33.15;nan
78206;BME280;67480;48.920;12.880;2023-07-31T12:56:37;96742.63;;;34.83;nan
78206;BME280;67480;48.920;12.880;2023-07-31T12:59:16;96744.28;;;34.75;nan
78206;BME280;67480;48.920;12.880;2023-07-31T13:01:55;96754.31;;;34.82;nan
78206;BME280;67480;48.920;12.880;2023-07-31T13:04:20;96741.66;;;35.01;nan
78206;BME280;67480;48.920;12.880;2023-07-31T13:06:58;96745.63;;;36.22;nan
78206;BME280;67480;48.920;12.880;2023-07-31T13:09:32;96740.63;;;36.31;nan
78206;BME280;67480;48.920;12.880;2023-07-31T13:11:57;96743.31;;;37.31;nan
78206;BME280;67480;48.920;12.880;2023-07-31T13:14:39;96738.22;;;37.35;nan
78206;BME280;67480;48.920;12.880;2023-07-31T13:17:28;96734.28;;;36.83;nan
78206;BME280;67480;48.920;12.880;2023-07-31T13:19:54;96734.13;;;35.22;nan
78206;BME280;67480;48.920;12.880;2023-07-31T13:22:19;96721.72;;;34.79;nan
78206;BME280;67480;48.920;12.880;2023-07-31T13:24:44;96721.78;;;35.14;nan
78206;BME280;67480;48.920;12.880;2023-07-31T13:27:10;96736.16;;;35.57;nan